createdAt,value
2019-02-02T00:00:55.665Z,911.9
2019-02-02T00:01:56.480Z,911.84
2019-02-02T00:02:57.181Z,911.77
2019-02-02T00:03:57.423Z,911.76
2019-02-02T00:04:57.844Z,911.76
2019-02-02T00:05:58.252Z,911.81
2019-02-02T00:06:58.664Z,911.87
2019-02-02T00:07:59.795Z,911.9
2019-02-02T00:09:00.622Z,911.91
2019-02-02T00:10:01.313Z,911.96
2019-02-02T00:11:01.600Z,911.9
2019-02-02T00:12:02.573Z,911.84
2019-02-02T00:13:02.831Z,911.85
2019-02-02T00:14:03.628Z,911.85
2019-02-02T00:15:04.762Z,911.81
2019-02-02T00:16:06.012Z,911.84
2019-02-02T00:17:06.253Z,911.83
2019-02-02T00:18:06.801Z,911.91
2019-02-02T00:19:06.919Z,911.95
2019-02-02T00:20:07.329Z,911.94
2019-02-02T00:21:08.044Z,911.88
2019-02-02T00:22:09.010Z,911.85
2019-02-02T00:23:09.425Z,911.83
2019-02-02T00:24:10.830Z,911.86
2019-02-02T00:25:11.960Z,911.93
2019-02-02T00:26:12.925Z,911.92
2019-02-02T00:27:13.341Z,911.88
2019-02-02T00:28:13.753Z,911.86
2019-02-02T00:29:14.577Z,911.78
2019-02-02T00:30:14.818Z,911.73
2019-02-02T00:31:15.223Z,911.71
2019-02-02T00:32:16.354Z,911.68
2019-02-02T00:33:16.763Z,911.66
2019-02-02T00:34:17.036Z,911.63
2019-02-02T00:35:18.000Z,911.66
2019-02-02T00:36:18.524Z,911.65
2019-02-02T00:37:18.789Z,911.66
2019-02-02T00:38:19.983Z,911.65
2019-02-02T00:39:21.091Z,911.71
2019-02-02T00:40:21.498Z,911.78
2019-02-02T00:41:22.602Z,911.82
2019-02-02T00:42:23.019Z,911.81
2019-02-02T00:43:23.627Z,911.8
2019-02-02T00:44:24.038Z,911.83
2019-02-02T00:45:25.005Z,911.81
2019-02-02T00:46:25.971Z,911.82
2019-02-02T00:47:26.659Z,911.77
2019-02-02T00:48:27.350Z,911.78
2019-02-02T00:49:27.770Z,911.7
2019-02-02T00:50:28.181Z,911.67
2019-02-02T00:51:28.590Z,911.6
2019-02-02T00:52:29.286Z,911.55
2019-02-02T00:53:30.040Z,911.53
2019-02-02T00:54:30.732Z,911.59
2019-02-02T00:55:31.817Z,911.57
2019-02-02T00:56:32.228Z,911.52
2019-02-02T00:57:32.921Z,911.64
2019-02-02T00:58:33.713Z,911.6
2019-02-02T00:59:34.670Z,911.6
2019-02-02T01:00:35.090Z,911.65
2019-02-02T01:01:35.644Z,911.72
2019-02-02T01:02:36.161Z,911.71
2019-02-02T01:03:36.593Z,911.75
2019-02-02T01:04:37.558Z,911.69
2019-02-02T01:05:37.976Z,911.73
2019-02-02T01:06:38.679Z,911.73
2019-02-02T01:07:40.086Z,911.68
2019-02-02T01:08:41.079Z,911.68
2019-02-02T01:09:42.202Z,911.65
2019-02-02T01:10:43.335Z,911.64
2019-02-02T01:11:43.743Z,911.66
2019-02-02T01:11:55.775Z,911.6
2019-02-02T01:12:56.432Z,911.61
2019-02-02T01:13:57.124Z,911.6
2019-02-02T01:14:57.808Z,911.58
2019-02-02T01:15:58.161Z,911.58
2019-02-02T01:16:58.850Z,911.55
2019-02-02T01:17:59.612Z,911.53
2019-02-02T01:19:00.578Z,911.5
2019-02-02T01:20:00.985Z,911.48
2019-02-02T01:21:01.946Z,911.43
2019-02-02T01:22:03.074Z,911.43
2019-02-02T01:23:04.169Z,911.4
2019-02-02T01:24:04.361Z,911.4
2019-02-02T01:25:05.602Z,911.39
2019-02-02T01:26:06.011Z,911.39
2019-02-02T01:27:06.516Z,911.39
2019-02-02T01:28:07.042Z,911.39
2019-02-02T01:29:07.449Z,911.41
2019-02-02T01:30:08.133Z,911.37
2019-02-02T01:31:09.172Z,911.41
2019-02-02T01:32:10.137Z,911.39
2019-02-02T01:33:11.046Z,911.42
2019-02-02T01:34:11.459Z,911.38
2019-02-02T01:35:12.420Z,911.4
2019-02-02T01:36:13.383Z,911.32
2019-02-02T01:37:13.794Z,911.24
2019-02-02T01:38:14.801Z,911.17
2019-02-02T01:39:15.320Z,911.17
2019-02-02T01:40:16.300Z,911.19
2019-02-02T01:41:17.678Z,911.19
2019-02-02T01:42:18.362Z,911.15
2019-02-02T01:43:19.250Z,911.21
2019-02-02T01:44:19.659Z,911.16
2019-02-02T01:45:20.737Z,911.12
2019-02-02T01:46:21.702Z,911.18
2019-02-02T01:47:22.225Z,911.16
2019-02-02T01:48:22.359Z,911.29
2019-02-02T01:49:22.771Z,911.32
2019-02-02T01:50:23.581Z,911.37
2019-02-02T01:51:23.877Z,911.39
2019-02-02T01:52:24.568Z,911.35
2019-02-02T01:53:25.549Z,911.4
2019-02-02T01:54:26.232Z,911.42
2019-02-02T01:55:27.367Z,911.35
2019-02-02T01:56:28.056Z,911.36
2019-02-02T01:57:29.018Z,911.36
2019-02-02T01:58:29.981Z,911.38
2019-02-02T01:59:31.384Z,911.44
2019-02-02T02:00:32.353Z,911.48
2019-02-02T02:01:33.312Z,911.44
2019-02-02T02:02:33.849Z,911.46
2019-02-02T02:03:34.689Z,911.41
2019-02-02T02:04:35.667Z,911.33
2019-02-02T02:05:36.793Z,911.35
2019-02-02T02:06:37.538Z,911.34
2019-02-02T02:07:37.952Z,911.27
2019-02-02T02:08:38.386Z,911.27
2019-02-02T02:09:39.546Z,911.22
2019-02-02T02:10:39.962Z,911.27
2019-02-02T02:11:40.639Z,911.26
2019-02-02T02:12:41.714Z,911.27
2019-02-02T02:13:42.966Z,911.26
2019-02-02T02:14:43.928Z,911.18
2019-02-02T02:15:44.891Z,911.18
2019-02-02T02:16:45.304Z,911.24
2019-02-02T02:17:46.430Z,911.24
2019-02-02T02:18:47.114Z,911.2
2019-02-02T02:19:48.082Z,911.25
2019-02-02T02:20:49.050Z,911.18
2019-02-02T02:21:49.458Z,911.19
2019-02-02T02:22:50.142Z,911.19
2019-02-02T02:23:50.414Z,911.2
2019-02-02T02:24:51.384Z,911.13
2019-02-02T02:25:52.348Z,911.19
2019-02-02T02:26:53.312Z,911.21
2019-02-02T02:27:53.996Z,911.24
2019-02-02T02:28:54.681Z,911.23
2019-02-02T02:29:55.366Z,911.22
2019-02-02T02:30:55.871Z,911.28
2019-02-02T02:31:57.003Z,911.28
2019-02-02T02:32:57.616Z,911.25
2019-02-02T02:33:57.871Z,911.26
2019-02-02T02:34:58.278Z,911.29
2019-02-02T02:35:58.772Z,911.29
2019-02-02T02:36:59.744Z,911.3
2019-02-02T02:38:00.150Z,911.32
2019-02-02T02:39:01.233Z,911.32
2019-02-02T02:40:02.222Z,911.34
2019-02-02T02:41:02.767Z,911.32
2019-02-02T02:42:03.289Z,911.3
2019-02-02T02:43:04.736Z,911.25
2019-02-02T02:44:05.860Z,911.27
2019-02-02T02:45:06.875Z,911.26
2019-02-02T02:46:08.251Z,911.34
2019-02-02T02:47:08.503Z,911.32
2019-02-02T02:48:09.575Z,911.3
2019-02-02T02:49:10.689Z,911.24
2019-02-02T02:50:11.108Z,911.23
2019-02-02T02:51:11.814Z,911.22
2019-02-02T02:52:12.349Z,911.22
2019-02-02T02:53:13.334Z,911.12
2019-02-02T02:54:14.097Z,911.12
2019-02-02T02:55:15.070Z,911.05
2019-02-02T02:56:15.492Z,911.03
2019-02-02T02:57:16.515Z,911.07
2019-02-02T02:58:17.042Z,911.14
2019-02-02T02:59:17.731Z,911.2
2019-02-02T03:00:19.100Z,911.25
2019-02-02T03:01:19.671Z,911.29
2019-02-02T03:02:20.214Z,911.36
2019-02-02T03:03:20.507Z,911.38
2019-02-02T03:04:21.493Z,911.31
2019-02-02T03:05:22.459Z,911.31
2019-02-02T03:06:23.159Z,911.29
2019-02-02T03:07:24.130Z,911.34
2019-02-02T03:08:25.401Z,911.38
2019-02-02T03:09:25.919Z,911.36
2019-02-02T03:10:27.166Z,911.36
2019-02-02T03:11:27.896Z,911.36
2019-02-02T03:12:28.139Z,911.37
2019-02-02T03:13:28.861Z,911.38
2019-02-02T03:14:30.184Z,911.42
2019-02-02T03:15:31.431Z,911.39
2019-02-02T03:16:31.839Z,911.4
2019-02-02T03:17:32.359Z,911.39
2019-02-02T03:18:32.602Z,911.38
2019-02-02T03:19:33.404Z,911.44
2019-02-02T03:20:34.637Z,911.46
2019-02-02T03:21:35.323Z,911.49
2019-02-02T03:22:36.562Z,911.52
2019-02-02T03:23:37.302Z,911.52
2019-02-02T03:24:37.857Z,911.49
2019-02-02T03:25:38.290Z,911.51
2019-02-02T03:26:38.698Z,911.48
2019-02-02T03:27:39.201Z,911.47
2019-02-02T03:28:39.928Z,911.5
2019-02-02T03:28:53.301Z,911.47
2019-02-02T03:29:52.091Z,911.48
2019-02-02T03:30:53.105Z,911.48
2019-02-02T03:31:54.022Z,911.52
2019-02-02T03:32:55.113Z,911.61
2019-02-02T03:33:56.261Z,911.63
2019-02-02T03:34:56.949Z,911.59
2019-02-02T03:35:58.195Z,911.6
2019-02-02T03:36:59.157Z,911.62
2019-02-02T03:37:59.987Z,911.65
2019-02-02T03:39:00.446Z,911.63
2019-02-02T03:40:01.296Z,911.73
2019-02-02T03:41:02.553Z,911.76
2019-02-02T03:42:03.415Z,911.82
2019-02-02T03:43:04.964Z,911.85
2019-02-02T03:44:05.704Z,911.88
2019-02-02T03:45:06.418Z,911.92
2019-02-02T03:46:06.917Z,911.97
2019-02-02T03:47:07.616Z,912.03
2019-02-02T03:48:08.577Z,912.05
2019-02-02T03:49:09.270Z,912.06
2019-02-02T03:50:10.528Z,912.07
2019-02-02T03:51:11.537Z,912.04
2019-02-02T03:52:11.954Z,912.03
2019-02-02T03:53:12.657Z,912.09
2019-02-02T03:54:13.345Z,912.05
2019-02-02T03:55:14.323Z,912.1
2019-02-02T03:56:15.294Z,912.11
2019-02-02T03:57:15.705Z,912.1
2019-02-02T03:58:16.513Z,912.14
2019-02-02T03:59:17.481Z,912.12
2019-02-02T04:00:18.584Z,912.15
2019-02-02T04:01:18.832Z,912.18
2019-02-02T04:02:19.370Z,912.17
2019-02-02T04:03:19.777Z,912.15
2019-02-02T04:04:20.471Z,912.13
2019-02-02T04:05:20.883Z,912.15
2019-02-02T04:06:21.401Z,912.15
2019-02-02T04:07:22.422Z,912.18
2019-02-02T04:08:23.108Z,912.13
2019-02-02T04:09:23.794Z,912.14
2019-02-02T04:10:24.350Z,912.09
2019-02-02T04:11:25.062Z,912.06
2019-02-02T04:12:26.447Z,912.11
2019-02-02T04:13:27.166Z,912.11
2019-02-02T04:14:27.894Z,912.24
2019-02-02T04:15:28.872Z,912.24
2019-02-02T04:16:29.560Z,912.24
2019-02-02T04:17:30.247Z,912.15
2019-02-02T04:18:31.376Z,912.04
2019-02-02T04:19:31.622Z,912.02
2019-02-02T04:20:32.171Z,912.05
2019-02-02T04:21:32.396Z,912.02
2019-02-02T04:22:36.375Z,912.06
2019-02-02T04:23:37.064Z,912.09
2019-02-02T04:24:38.026Z,912.15
2019-02-02T04:25:38.263Z,912.2
2019-02-02T04:26:38.958Z,912.16
2019-02-02T04:27:40.094Z,912.17
2019-02-02T04:28:40.856Z,912.19
2019-02-02T04:29:41.374Z,912.25
2019-02-02T04:30:41.922Z,912.28
2019-02-02T04:31:42.339Z,912.25
2019-02-02T04:32:43.030Z,912.16
2019-02-02T04:33:44.066Z,912.11
2019-02-02T04:34:44.656Z,912.06
2019-02-02T04:35:45.064Z,911.96
2019-02-02T04:36:46.025Z,911.98
2019-02-02T04:37:46.716Z,911.92
2019-02-02T04:38:47.682Z,911.95
2019-02-02T04:39:48.647Z,911.99
2019-02-02T04:40:49.774Z,912
2019-02-02T04:41:50.178Z,912.01
2019-02-02T04:42:51.418Z,912.08
2019-02-02T04:43:52.146Z,912.18
2019-02-02T04:44:53.113Z,912.25
2019-02-02T04:45:53.802Z,912.24
2019-02-02T04:46:54.932Z,912.22
2019-02-02T04:47:56.068Z,912.18
2019-02-02T04:48:56.842Z,912.19
2019-02-02T04:49:57.802Z,912.21
2019-02-02T04:50:58.260Z,912.31
2019-02-02T04:51:59.219Z,912.33
2019-02-02T04:52:59.924Z,912.44
2019-02-02T04:54:00.451Z,912.45
2019-02-02T04:55:00.878Z,912.41
2019-02-02T04:56:01.871Z,912.33
2019-02-02T04:57:02.849Z,912.26
2019-02-02T04:58:03.884Z,912.23
2019-02-02T04:59:04.402Z,912.32
2019-02-02T05:00:04.970Z,912.32
2019-02-02T05:01:05.948Z,912.31
2019-02-02T05:02:06.631Z,912.33
2019-02-02T05:03:06.833Z,912.36
2019-02-02T05:04:07.522Z,912.42
2019-02-02T05:05:08.487Z,912.39
2019-02-02T05:06:09.623Z,912.33
2019-02-02T05:07:10.314Z,912.31
2019-02-02T05:08:10.836Z,912.32
2019-02-02T05:09:11.520Z,912.32
2019-02-02T05:10:11.926Z,912.27
2019-02-02T05:11:12.655Z,912.22
2019-02-02T05:12:13.060Z,912.16
2019-02-02T05:13:13.479Z,912.2
2019-02-02T05:14:13.883Z,912.21
2019-02-02T05:15:14.292Z,912.21
2019-02-02T05:16:15.030Z,912.19
2019-02-02T05:17:15.718Z,912.19
2019-02-02T05:18:16.681Z,912.24
2019-02-02T05:19:17.366Z,912.27
2019-02-02T05:20:17.775Z,912.34
2019-02-02T05:21:19.002Z,912.35
2019-02-02T05:22:19.689Z,912.39
2019-02-02T05:23:20.095Z,912.41
2019-02-02T05:24:21.225Z,912.47
2019-02-02T05:25:21.913Z,912.51
2019-02-02T05:26:22.415Z,912.52
2019-02-02T05:27:23.382Z,912.55
2019-02-02T05:28:24.068Z,912.55
2019-02-02T05:29:25.036Z,912.62
2019-02-02T05:30:26.292Z,912.68
2019-02-02T05:31:26.833Z,912.74
2019-02-02T05:32:27.341Z,912.77
2019-02-02T05:33:27.765Z,912.78
2019-02-02T05:34:28.895Z,912.82
2019-02-02T05:35:29.134Z,912.9
2019-02-02T05:36:29.538Z,912.86
2019-02-02T05:37:29.770Z,912.88
2019-02-02T05:38:30.899Z,912.92
2019-02-02T05:39:31.306Z,912.93
2019-02-02T05:40:31.557Z,912.95
2019-02-02T05:41:31.933Z,912.98
2019-02-02T05:42:32.679Z,913
2019-02-02T05:43:33.097Z,913.02
2019-02-02T05:44:33.781Z,913.07
2019-02-02T05:45:34.743Z,913.12
2019-02-02T05:46:35.706Z,913.15
2019-02-02T05:47:36.393Z,913.14
2019-02-02T05:48:37.244Z,913.21
2019-02-02T05:49:37.653Z,913.24
2019-02-02T05:50:38.788Z,913.31
2019-02-02T05:51:39.192Z,913.33
2019-02-02T05:52:40.163Z,913.33
2019-02-02T05:53:40.849Z,913.35
2019-02-02T05:54:41.980Z,913.3
2019-02-02T05:55:42.218Z,913.33
2019-02-02T05:56:42.699Z,913.34
2019-02-02T05:57:43.390Z,913.29
2019-02-02T05:58:44.170Z,913.31
2019-02-02T05:59:57.886Z,913.27
2019-02-02T06:00:58.728Z,913.25
2019-02-02T06:01:59.862Z,913.25
2019-02-02T06:03:01.275Z,913.29
2019-02-02T06:04:01.795Z,913.33
2019-02-02T06:05:02.925Z,913.36
2019-02-02T06:06:03.889Z,913.41
2019-02-02T06:07:04.865Z,913.47
2019-02-02T06:08:05.273Z,913.5
2019-02-02T06:09:06.070Z,913.5
2019-02-02T06:10:06.477Z,913.5
2019-02-02T06:11:07.906Z,913.51
2019-02-02T06:12:08.312Z,913.5
2019-02-02T06:13:08.936Z,913.59
2019-02-02T06:14:10.067Z,913.55
2019-02-02T06:15:10.264Z,913.57
2019-02-02T06:16:10.670Z,913.55
2019-02-02T06:17:11.833Z,913.59
2019-02-02T06:18:12.958Z,913.61
2019-02-02T06:19:13.374Z,913.6
2019-02-02T06:20:13.784Z,913.65
2019-02-02T06:21:14.437Z,913.6
2019-02-02T06:22:15.758Z,913.61
2019-02-02T06:23:16.444Z,913.58
2019-02-02T06:24:17.130Z,913.62
2019-02-02T06:25:18.263Z,913.61
2019-02-02T06:26:19.027Z,913.59
2019-02-02T06:27:19.444Z,913.61
2019-02-02T06:28:19.856Z,913.6
2019-02-02T06:29:20.264Z,913.69
2019-02-02T06:30:20.671Z,913.71
2019-02-02T06:31:21.794Z,913.79
2019-02-02T06:32:22.487Z,913.82
2019-02-02T06:33:23.618Z,913.81
2019-02-02T06:34:24.751Z,913.84
2019-02-02T06:35:25.003Z,913.85
2019-02-02T06:36:25.690Z,913.86
2019-02-02T06:37:26.096Z,913.87
2019-02-02T06:38:27.269Z,913.91
2019-02-02T06:39:28.233Z,913.89
2019-02-02T06:40:29.049Z,913.92
2019-02-02T06:41:29.242Z,913.87
2019-02-02T06:42:29.929Z,913.82
2019-02-02T06:43:31.038Z,913.84
2019-02-02T06:44:32.003Z,913.82
2019-02-02T06:45:32.691Z,913.85
2019-02-02T06:46:44.715Z,913.95
2019-02-02T06:47:45.382Z,914
2019-02-02T06:48:46.624Z,914.02
2019-02-02T06:49:47.044Z,914.07
2019-02-02T06:50:47.281Z,914.04
2019-02-02T06:51:47.707Z,914
2019-02-02T06:52:48.390Z,913.95
2019-02-02T06:53:48.639Z,913.95
2019-02-02T06:54:49.607Z,913.92
2019-02-02T06:55:50.019Z,913.93
2019-02-02T06:56:50.427Z,913.91
2019-02-02T06:57:50.972Z,913.92
2019-02-02T06:58:51.765Z,913.94
2019-02-02T06:59:52.457Z,914.01
2019-02-02T07:00:52.864Z,913.99
2019-02-02T07:01:53.563Z,914.03
2019-02-02T07:02:54.701Z,914.08
2019-02-02T07:03:55.390Z,914.13
2019-02-02T07:04:55.795Z,914.12
2019-02-02T07:05:56.489Z,914.1
2019-02-02T07:06:57.186Z,914.06
2019-02-02T07:07:57.447Z,914.09
2019-02-02T07:08:57.889Z,914.03
2019-02-02T07:09:58.298Z,914.07
2019-02-02T07:10:59.428Z,914.12
2019-02-02T07:11:59.834Z,914.19
2019-02-02T07:13:00.910Z,914.22
2019-02-02T07:14:01.154Z,914.2
2019-02-02T07:15:01.945Z,914.18
2019-02-02T07:16:02.915Z,914.18
2019-02-02T07:17:03.606Z,914.22
2019-02-02T07:18:04.170Z,914.33
2019-02-02T07:19:05.139Z,914.4
2019-02-02T07:20:05.569Z,914.42
2019-02-02T07:21:06.541Z,914.4
2019-02-02T07:22:07.675Z,914.46
2019-02-02T07:23:08.809Z,914.52
2019-02-02T07:24:09.774Z,914.7
2019-02-02T07:25:10.739Z,914.74
2019-02-02T07:26:11.110Z,914.54
2019-02-02T07:27:11.523Z,914.37
2019-02-02T07:28:12.207Z,914.24
2019-02-02T07:29:13.338Z,914.22
2019-02-02T07:30:13.759Z,914.2
2019-02-02T07:30:29.248Z,914.21
2019-02-02T07:31:27.050Z,914.19
2019-02-02T07:32:27.748Z,914.17
2019-02-02T07:33:28.458Z,914.25
2019-02-02T07:34:28.995Z,914.45
2019-02-02T07:35:29.235Z,914.63
2019-02-02T07:36:30.068Z,914.76
2019-02-02T07:37:30.780Z,914.85
2019-02-02T07:38:31.194Z,914.88
2019-02-02T07:39:32.165Z,914.87
2019-02-02T07:40:32.680Z,914.81
2019-02-02T07:41:33.059Z,914.81
2019-02-02T07:42:34.140Z,914.76
2019-02-02T07:43:35.274Z,914.79
2019-02-02T07:44:35.982Z,914.81
2019-02-02T07:45:37.115Z,914.89
2019-02-02T07:46:38.247Z,914.98
2019-02-02T07:47:39.217Z,915.02
2019-02-02T07:48:39.740Z,915.07
2019-02-02T07:49:40.708Z,914.96
2019-02-02T07:50:41.121Z,914.84
2019-02-02T07:51:41.968Z,914.78
2019-02-02T07:52:43.099Z,914.76
2019-02-02T07:53:43.787Z,914.82
2019-02-02T07:54:44.043Z,914.88
2019-02-02T07:55:44.596Z,914.9
2019-02-02T07:56:45.149Z,914.91
2019-02-02T07:57:46.288Z,914.93
2019-02-02T07:58:46.976Z,914.9
2019-02-02T07:59:47.389Z,914.86
2019-02-02T08:00:47.802Z,914.84
2019-02-02T08:01:48.174Z,914.82
2019-02-02T08:02:49.284Z,914.75
2019-02-02T08:03:49.697Z,914.75
2019-02-02T08:04:50.390Z,914.79
2019-02-02T08:05:50.799Z,914.92
2019-02-02T08:06:51.768Z,914.99
2019-02-02T08:07:52.179Z,915.01
2019-02-02T08:08:52.871Z,914.99
2019-02-02T08:09:53.282Z,914.97
2019-02-02T08:10:55.844Z,914.87
2019-02-02T08:11:56.144Z,914.78
2019-02-02T08:12:56.834Z,914.7
2019-02-02T08:13:57.607Z,914.63
2019-02-02T08:14:58.051Z,914.49
2019-02-02T08:15:58.462Z,914.39
2019-02-02T08:16:58.869Z,914.37
2019-02-02T08:17:59.597Z,914.49
2019-02-02T08:19:00.563Z,914.67
2019-02-02T08:20:00.972Z,914.89
2019-02-02T08:21:01.275Z,915
2019-02-02T08:22:02.151Z,915.04
2019-02-02T08:23:02.843Z,915.07
2019-02-02T08:24:03.532Z,915.09
2019-02-02T08:25:04.225Z,915.05
2019-02-02T08:26:04.476Z,915.06
2019-02-02T08:27:04.888Z,915.04
2019-02-02T08:28:05.919Z,915.05
2019-02-02T08:29:06.352Z,915.02
2019-02-02T08:30:07.037Z,915.04
2019-02-02T08:31:07.830Z,915.09
2019-02-02T08:32:08.090Z,915.11
2019-02-02T08:33:08.529Z,915.14
2019-02-02T08:34:09.229Z,915.14
2019-02-02T08:35:10.655Z,915.09
2019-02-02T08:36:11.059Z,915.08
2019-02-02T08:37:12.025Z,915.06
2019-02-02T08:38:12.993Z,915.05
2019-02-02T08:39:13.204Z,915.11
2019-02-02T08:40:13.780Z,915.16
2019-02-02T08:41:14.481Z,915.18
2019-02-02T08:42:14.878Z,915.16
2019-02-02T08:43:15.288Z,915.16
2019-02-02T08:44:16.270Z,915.15
2019-02-02T08:45:17.319Z,915.18
2019-02-02T08:46:17.566Z,915.22
2019-02-02T08:47:18.981Z,915.24
2019-02-02T08:48:20.394Z,915.24
2019-02-02T08:49:20.826Z,915.28
2019-02-02T08:50:21.517Z,915.32
2019-02-02T08:51:22.506Z,915.33
2019-02-02T08:52:23.042Z,915.37
2019-02-02T08:53:23.826Z,915.38
2019-02-02T08:54:24.218Z,915.48
2019-02-02T08:55:24.500Z,915.5
2019-02-02T08:56:25.318Z,915.51
2019-02-02T08:57:25.659Z,915.62
2019-02-02T08:58:26.530Z,915.61
2019-02-02T08:59:27.501Z,915.64
2019-02-02T09:00:27.833Z,915.63
2019-02-02T09:01:28.247Z,915.64
2019-02-02T09:02:29.089Z,915.67
2019-02-02T09:03:29.455Z,915.71
2019-02-02T09:04:30.603Z,915.7
2019-02-02T09:05:31.363Z,915.72
2019-02-02T09:06:39.848Z,915.77
2019-02-02T09:06:46.006Z,915.75
2019-02-02T09:07:47.106Z,915.8
2019-02-02T09:08:48.092Z,915.85
2019-02-02T09:09:48.790Z,915.9
2019-02-02T09:10:49.199Z,915.92
2019-02-02T09:11:49.895Z,915.94
2019-02-02T09:12:50.587Z,915.97
2019-02-02T09:13:51.415Z,915.99
2019-02-02T09:14:51.943Z,915.96
2019-02-02T09:15:52.914Z,916.03
2019-02-02T09:16:53.613Z,916
2019-02-02T09:17:54.726Z,916.06
2019-02-02T09:18:55.138Z,916.17
2019-02-02T09:19:55.829Z,916.17
2019-02-02T09:20:56.251Z,916.19
2019-02-02T09:21:57.275Z,916.23
2019-02-02T09:23:06.789Z,916.25
2019-02-02T09:23:10.286Z,916.23
2019-02-02T09:24:11.400Z,916.27
2019-02-02T09:25:11.937Z,916.29
2019-02-02T09:26:12.402Z,916.32
2019-02-02T09:27:12.562Z,916.31
2019-02-02T09:28:13.270Z,916.33
2019-02-02T09:29:13.681Z,916.32
2019-02-02T09:30:15.755Z,916.34
2019-02-02T09:31:17.008Z,916.38
2019-02-02T09:32:17.697Z,916.37
2019-02-02T09:33:18.857Z,916.4
2019-02-02T09:34:19.887Z,916.41
2019-02-02T09:35:20.585Z,916.44
2019-02-02T09:36:21.110Z,916.46
2019-02-02T09:37:22.271Z,916.5
2019-02-02T09:38:22.990Z,916.46
2019-02-02T09:39:23.697Z,916.51
2019-02-02T09:40:26.321Z,916.53
2019-02-02T09:41:26.742Z,916.55
2019-02-02T09:42:27.709Z,916.56
2019-02-02T09:43:28.836Z,916.59
2019-02-02T09:44:29.966Z,916.62
2019-02-02T09:45:30.655Z,916.63
2019-02-02T09:46:31.475Z,916.62
2019-02-02T09:47:31.893Z,916.68
2019-02-02T09:48:33.030Z,916.66
2019-02-02T09:49:33.279Z,916.68
2019-02-02T09:50:34.415Z,916.68
2019-02-02T09:51:34.838Z,916.69
2019-02-02T09:52:35.527Z,916.65
2019-02-02T09:53:35.942Z,916.65
2019-02-02T09:54:36.717Z,916.63
2019-02-02T09:55:37.407Z,916.63
2019-02-02T09:56:39.306Z,916.61
2019-02-02T09:57:39.965Z,916.64
2019-02-02T09:58:41.212Z,916.69
2019-02-02T09:59:41.903Z,916.77
2019-02-02T10:00:42.595Z,916.75
2019-02-02T10:01:43.285Z,916.77
2019-02-02T10:02:46.652Z,916.79
2019-02-02T10:03:47.668Z,916.79
2019-02-02T10:04:48.166Z,916.78
2019-02-02T10:05:49.270Z,916.77
2019-02-02T10:06:51.560Z,916.75
2019-02-02T10:07:51.528Z,916.71
2019-02-02T10:08:52.222Z,916.77
2019-02-02T10:09:52.912Z,916.83
2019-02-02T10:10:53.327Z,916.87
2019-02-02T10:11:54.295Z,916.99
2019-02-02T10:12:54.988Z,917.06
2019-02-02T10:13:55.621Z,917.12
2019-02-02T10:14:56.443Z,917.03
2019-02-02T10:15:56.855Z,916.95
2019-02-02T10:16:57.565Z,916.98
2019-02-02T10:18:00.167Z,916.96
2019-02-02T10:19:01.657Z,917.03
2019-02-02T10:19:14.511Z,917.02
2019-02-02T10:20:12.862Z,917.07
2019-02-02T10:21:13.284Z,917.14
2019-02-02T10:22:13.707Z,917.13
2019-02-02T10:23:14.680Z,917.1
2019-02-02T10:24:15.372Z,917.07
2019-02-02T10:25:16.506Z,917.06
2019-02-02T10:26:17.264Z,917.02
2019-02-02T10:27:18.288Z,917.1
2019-02-02T10:28:19.115Z,917.13
2019-02-02T10:29:19.362Z,917.18
2019-02-02T10:30:23.052Z,917.22
2019-02-02T10:31:24.145Z,917.22
2019-02-02T10:32:25.013Z,917.24
2019-02-02T10:33:25.443Z,917.26
2019-02-02T10:34:26.688Z,917.26
2019-02-02T10:35:27.445Z,917.27
2019-02-02T10:36:28.151Z,917.25
2019-02-02T10:37:28.571Z,917.29
2019-02-02T10:38:28.988Z,917.33
2019-02-02T10:39:29.510Z,917.38
2019-02-02T10:40:30.584Z,917.37
2019-02-02T10:41:31.913Z,917.42
2019-02-02T10:42:32.603Z,917.42
2019-02-02T10:43:33.018Z,917.39
2019-02-02T10:44:33.989Z,917.4
2019-02-02T10:45:34.735Z,917.45
2019-02-02T10:46:35.436Z,917.45
2019-02-02T10:47:36.133Z,917.47
2019-02-02T10:48:36.564Z,917.53
2019-02-02T10:49:37.810Z,917.51
2019-02-02T10:50:38.212Z,917.51
2019-02-02T10:51:39.348Z,917.44
2019-02-02T10:52:39.597Z,917.38
2019-02-02T10:53:40.017Z,917.4
2019-02-02T10:54:40.984Z,917.35
2019-02-02T10:55:42.125Z,917.35
2019-02-02T10:56:44.088Z,917.37
2019-02-02T10:57:44.029Z,917.4
2019-02-02T10:58:44.822Z,917.41
2019-02-02T10:59:45.240Z,917.43
2019-02-02T11:00:46.305Z,917.39
2019-02-02T11:01:51.598Z,917.4
2019-02-02T11:02:52.308Z,917.32
2019-02-02T11:03:53.122Z,917.35
2019-02-02T11:04:54.169Z,917.39
2019-02-02T11:05:55.149Z,917.4
2019-02-02T11:06:56.025Z,917.44
2019-02-02T11:07:56.781Z,917.48
2019-02-02T11:08:57.311Z,917.5
2019-02-02T11:09:57.855Z,917.53
2019-02-02T11:10:58.685Z,917.52
2019-02-02T11:11:59.520Z,917.53
2019-02-02T11:13:00.662Z,917.52
2019-02-02T11:14:02.080Z,917.51
2019-02-02T11:15:02.853Z,917.49
2019-02-02T11:16:03.151Z,917.52
2019-02-02T11:17:03.590Z,917.51
2019-02-02T11:18:04.192Z,917.52
2019-02-02T11:19:05.459Z,917.52
2019-02-02T11:20:06.895Z,917.52
2019-02-02T11:21:08.038Z,917.51
2019-02-02T11:22:08.418Z,917.48
2019-02-02T11:23:09.118Z,917.49
2019-02-02T11:24:09.507Z,917.42
2019-02-02T11:25:10.066Z,917.48
2019-02-02T11:26:11.336Z,917.45
2019-02-02T11:27:13.354Z,917.38
2019-02-02T11:28:14.190Z,917.41
2019-02-02T11:29:15.069Z,917.45
2019-02-02T11:30:15.863Z,917.4
2019-02-02T11:31:16.359Z,917.5
2019-02-02T11:32:17.052Z,917.51
2019-02-02T11:33:17.754Z,917.53
2019-02-02T11:34:18.008Z,917.48
2019-02-02T11:35:18.423Z,917.43
2019-02-02T11:36:19.467Z,917.39
2019-02-02T11:37:19.891Z,917.44
2019-02-02T11:38:20.419Z,917.52
2019-02-02T11:39:21.111Z,917.6
2019-02-02T11:40:22.087Z,917.61
2019-02-02T11:41:23.345Z,917.65
2019-02-02T11:42:24.310Z,917.63
2019-02-02T11:43:25.452Z,917.61
2019-02-02T11:44:25.867Z,917.64
2019-02-02T11:45:26.851Z,917.63
2019-02-02T11:46:27.302Z,917.61
2019-02-02T11:47:27.997Z,917.57
2019-02-02T11:48:28.714Z,917.58
2019-02-02T11:49:29.690Z,917.58
2019-02-02T11:50:30.103Z,917.59
2019-02-02T11:51:30.484Z,917.61
2019-02-02T11:52:31.176Z,917.63
2019-02-02T11:53:31.598Z,917.6
2019-02-02T11:54:32.734Z,917.6
2019-02-02T11:55:33.157Z,917.6
2019-02-02T11:56:34.131Z,917.6
2019-02-02T11:57:34.957Z,917.65
2019-02-02T11:58:35.492Z,917.61
2019-02-02T11:59:35.906Z,917.69
2019-02-02T12:00:36.422Z,917.73
2019-02-02T12:01:37.285Z,917.76
2019-02-02T12:02:49.846Z,917.78
2019-02-02T12:03:49.985Z,917.7
2019-02-02T12:04:51.095Z,917.68
2019-02-02T12:05:51.510Z,917.62
2019-02-02T12:06:51.932Z,917.59
2019-02-02T12:07:52.482Z,917.59
2019-02-02T12:08:53.452Z,917.61
2019-02-02T12:09:53.873Z,917.64
2019-02-02T12:10:54.179Z,917.61
2019-02-02T12:11:55.279Z,917.61
2019-02-02T12:12:56.088Z,917.56
2019-02-02T12:13:56.632Z,917.58
2019-02-02T12:14:57.411Z,917.53
2019-02-02T12:15:57.847Z,917.56
2019-02-02T12:16:58.645Z,917.56
2019-02-02T12:17:59.233Z,917.6
2019-02-02T12:19:00.372Z,917.6
2019-02-02T12:20:01.622Z,917.6
2019-02-02T12:21:02.055Z,917.57
2019-02-02T12:22:03.029Z,917.6
2019-02-02T12:23:03.594Z,917.64
2019-02-02T12:24:16.491Z,917.63
2019-02-02T12:25:17.031Z,917.65
2019-02-02T12:26:18.012Z,917.6
2019-02-02T12:27:18.424Z,917.62
2019-02-02T12:28:19.417Z,917.63
2019-02-02T12:29:19.829Z,917.59
2019-02-02T12:30:20.966Z,917.58
2019-02-02T12:31:21.475Z,917.56
2019-02-02T12:32:27.438Z,917.53
2019-02-02T12:32:34.944Z,917.51
2019-02-02T12:33:35.382Z,917.55
2019-02-02T12:34:36.376Z,917.57
2019-02-02T12:35:37.071Z,917.57
2019-02-02T12:36:38.207Z,917.56